createdAt,value
2023-03-29T00:00:32.863Z,98141.19
2023-03-29T00:05:35.141Z,98148.03
2023-03-29T00:10:37.207Z,98141.41
2023-03-29T00:15:38.578Z,98134.63
2023-03-29T00:20:40.008Z,98137.06
2023-03-29T00:25:41.453Z,98133.91
2023-03-29T00:30:42.729Z,98122.59
2023-03-29T00:35:44.041Z,98131.97
2023-03-29T00:40:45.324Z,98127.88
2023-03-29T00:45:46.588Z,98131.13
2023-03-29T00:50:48.344Z,98127.13
2023-03-29T00:55:49.685Z,98132.88
2023-03-29T01:00:52.218Z,98145.84
2023-03-29T01:05:53.469Z,98141.25
2023-03-29T01:10:54.672Z,98140.97
2023-03-29T01:15:55.957Z,98129.22
2023-03-29T01:21:02.862Z,98126.50
2023-03-29T01:26:04.176Z,98122.25
2023-03-29T01:31:08.379Z,98117.72
2023-03-29T01:36:09.653Z,98108.34
2023-03-29T01:41:11.235Z,98090.66
2023-03-29T01:46:12.709Z,98093.44
2023-03-29T01:51:13.936Z,98073.56
2023-03-29T01:56:15.148Z,98073.25
2023-03-29T02:01:17.660Z,98067.03
2023-03-29T02:06:19.121Z,98072.78
2023-03-29T02:11:20.332Z,98055.81
2023-03-29T02:16:21.666Z,98042.34
2023-03-29T02:21:22.892Z,98038.03
2023-03-29T02:26:24.609Z,98040.88
2023-03-29T02:31:26.122Z,98027.66
2023-03-29T02:36:28.258Z,98030.09
2023-03-29T02:41:29.722Z,98027.47
2023-03-29T02:46:31.466Z,98033.06
2023-03-29T02:51:32.724Z,98041.59
2023-03-29T02:56:33.948Z,98041.53
2023-03-29T03:01:37.137Z,98049.97
2023-03-29T03:06:38.428Z,98050.59
2023-03-29T03:11:39.844Z,98038.28
2023-03-29T03:16:41.706Z,98050.25
2023-03-29T03:21:43.297Z,98052.66
2023-03-29T03:26:46.344Z,98064.72
2023-03-29T03:31:47.621Z,98065.41
2023-03-29T03:36:48.956Z,98057.00
2023-03-29T03:41:50.164Z,98050.03
2023-03-29T03:46:51.464Z,98048.75
2023-03-29T03:51:53.107Z,98056.41
2023-03-29T03:56:54.356Z,98054.44
2023-03-29T04:01:55.791Z,98058.56
2023-03-29T04:07:02.618Z,98059.69
2023-03-29T04:12:03.924Z,98054.81
2023-03-29T04:17:05.721Z,98064.09
2023-03-29T04:22:07.010Z,98052.16
2023-03-29T04:27:08.264Z,98064.75
2023-03-29T04:32:09.516Z,98057.16
2023-03-29T04:37:10.798Z,98046.94
2023-03-29T04:42:12.489Z,98040.84
2023-03-29T04:47:13.812Z,98039.91
2023-03-29T04:52:15.106Z,98042.13
2023-03-29T04:57:17.188Z,98056.44
2023-03-29T05:02:18.523Z,98060.84
2023-03-29T05:07:19.869Z,98048.38
2023-03-29T05:12:21.103Z,98056.84
2023-03-29T05:17:22.466Z,98061.81
2023-03-29T05:22:23.765Z,98061.88
2023-03-29T05:27:25.515Z,98077.16
2023-03-29T05:32:27.086Z,98064.47
2023-03-29T05:37:28.615Z,98044.19
2023-03-29T05:42:29.910Z,98043.50
2023-03-29T05:47:31.711Z,98054.56
2023-03-29T05:52:32.975Z,98052.00
2023-03-29T05:57:34.182Z,98071.59
2023-03-29T06:02:36.802Z,98063.59
2023-03-29T06:07:38.422Z,98061.34
2023-03-29T06:12:39.869Z,98058.88
2023-03-29T06:17:41.195Z,98059.50
2023-03-29T06:22:42.548Z,98056.78
2023-03-29T06:27:43.818Z,98045.53
2023-03-29T06:32:45.253Z,98057.34
2023-03-29T06:37:49.992Z,98058.72
2023-03-29T06:42:57.715Z,98054.66
2023-03-29T06:47:59.247Z,98070.91
2023-03-29T06:53:00.578Z,98079.22
2023-03-29T06:58:02.866Z,98079.09
2023-03-29T07:03:04.262Z,98068.81
2023-03-29T07:08:05.514Z,98081.81
2023-03-29T07:13:07.087Z,98067.25
2023-03-29T07:18:08.513Z,98074.06
2023-03-29T07:23:09.767Z,98071.34
2023-03-29T07:28:11.279Z,98096.13
2023-03-29T07:33:13.235Z,98099.44
2023-03-29T07:38:15.539Z,98094.97
2023-03-29T07:43:18.310Z,98096.00
2023-03-29T07:48:19.710Z,98100.75
2023-03-29T07:53:21.163Z,98094.44
2023-03-29T07:58:22.536Z,98094.66
2023-03-29T08:03:24.000Z,98086.97
2023-03-29T08:08:25.432Z,98072.63
2023-03-29T08:13:26.791Z,98086.94
2023-03-29T08:18:28.384Z,98083.47
2023-03-29T08:23:29.904Z,98082.19
2023-03-29T08:28:31.155Z,98073.81
2023-03-29T08:33:32.571Z,98077.00
2023-03-29T08:38:33.810Z,98073.63
2023-03-29T08:43:36.704Z,98063.56
2023-03-29T08:48:38.045Z,98085.41
2023-03-29T08:53:40.170Z,98074.59
2023-03-29T08:58:41.557Z,98068.25
2023-03-29T09:03:43.135Z,98073.44
2023-03-29T09:08:44.492Z,98050.66
2023-03-29T09:13:45.894Z,98060.38
2023-03-29T09:18:47.553Z,98057.47
2023-03-29T09:23:48.876Z,98065.28
2023-03-29T09:28:50.108Z,98049.34
2023-03-29T09:33:51.380Z,98047.13
2023-03-29T09:38:54.429Z,98033.81
2023-03-29T09:43:55.931Z,98032.22
2023-03-29T09:48:57.243Z,98024.19
2023-03-29T09:54:00.221Z,98015.41
2023-03-29T09:59:01.486Z,98011.81
2023-03-29T10:04:02.817Z,98005.88
2023-03-29T10:09:04.708Z,97995.47
2023-03-29T10:14:06.519Z,97995.03
2023-03-29T10:19:07.799Z,97984.41
2023-03-29T10:24:09.076Z,97978.19
2023-03-29T10:29:10.349Z,97968.59
2023-03-29T10:34:11.827Z,97971.28
2023-03-29T10:39:13.174Z,97967.28
2023-03-29T10:44:14.392Z,97954.94
2023-03-29T10:49:15.652Z,97944.22
2023-03-29T10:54:17.361Z,97947.50
2023-03-29T10:59:18.765Z,97941.16
2023-03-29T11:04:20.016Z,97944.50
2023-03-29T11:09:21.216Z,97932.88
2023-03-29T11:14:22.507Z,97922.28
2023-03-29T11:19:23.894Z,97921.03
2023-03-29T11:24:25.155Z,97910.25
2023-03-29T11:29:27.162Z,97902.94
2023-03-29T11:34:29.594Z,97893.94
2023-03-29T11:39:30.898Z,97878.34
2023-03-29T11:44:32.194Z,97866.53
2023-03-29T11:49:33.426Z,97875.09
2023-03-29T11:54:35.367Z,97875.22
2023-03-29T11:59:36.611Z,97873.38
2023-03-29T12:04:37.909Z,97886.94
2023-03-29T12:09:39.472Z,97880.41
2023-03-29T12:14:40.777Z,97862.00
2023-03-29T12:19:43.670Z,97861.50
2023-03-29T12:24:45.237Z,97857.38
2023-03-29T12:29:46.618Z,97865.81
2023-03-29T12:34:47.842Z,97851.91
2023-03-29T12:39:49.255Z,97862.28
2023-03-29T12:44:50.627Z,97860.41
2023-03-29T12:49:51.954Z,97861.38
2023-03-29T12:54:53.204Z,97861.91
2023-03-29T12:59:54.993Z,97862.38
2023-03-29T13:04:56.337Z,97853.28
2023-03-29T13:09:57.689Z,97859.53
2023-03-29T13:14:58.986Z,97840.91
2023-03-29T13:20:00.853Z,97841.78
2023-03-29T13:25:02.229Z,97836.09
2023-03-29T13:30:04.526Z,97835.88
2023-03-29T13:35:06.329Z,97831.00
2023-03-29T13:40:07.686Z,97824.41
2023-03-29T13:45:08.896Z,97815.56
2023-03-29T13:50:10.246Z,97807.31
2023-03-29T13:55:11.801Z,97794.13
2023-03-29T14:00:15.488Z,97797.63
2023-03-29T14:05:16.774Z,97784.88
2023-03-29T14:10:17.977Z,97776.50
2023-03-29T14:15:19.239Z,97767.25
2023-03-29T14:20:21.003Z,97764.25
2023-03-29T14:25:22.721Z,97754.38
2023-03-29T14:30:24.123Z,97759.88
2023-03-29T14:35:25.768Z,97754.09
2023-03-29T14:40:27.795Z,97749.38
2023-03-29T14:45:29.143Z,97750.41
2023-03-29T14:50:30.962Z,97760.25
2023-03-29T14:55:32.282Z,97761.16
2023-03-29T15:00:35.029Z,97756.72
2023-03-29T15:05:36.271Z,97760.56
2023-03-29T15:10:37.558Z,97762.59
2023-03-29T15:15:39.001Z,97754.53
2023-03-29T15:20:40.832Z,97749.88
2023-03-29T15:25:42.384Z,97739.47
2023-03-29T15:30:45.073Z,97736.94
2023-03-29T15:35:49.006Z,97726.69
2023-03-29T15:40:50.563Z,97727.19
2023-03-29T15:45:52.312Z,97710.75
2023-03-29T15:50:53.636Z,97719.84
2023-03-29T15:55:54.912Z,97717.41
2023-03-29T16:00:56.368Z,97707.56
2023-03-29T16:05:57.772Z,97706.09
2023-03-29T16:10:59.042Z,97692.97
2023-03-29T16:16:00.629Z,97689.03
2023-03-29T16:21:01.946Z,97695.25
2023-03-29T16:26:03.404Z,97695.91
2023-03-29T16:31:05.087Z,97691.53
2023-03-29T16:36:06.614Z,97688.09
2023-03-29T16:41:08.207Z,97692.06
2023-03-29T16:46:09.564Z,97688.03
2023-03-29T16:51:10.818Z,97682.22
2023-03-29T16:56:12.073Z,97676.78
2023-03-29T17:01:13.461Z,97677.81
2023-03-29T17:06:14.787Z,97664.81
2023-03-29T17:11:16.255Z,97664.63
2023-03-29T17:16:17.659Z,97677.16
2023-03-29T17:21:19.048Z,97678.25
2023-03-29T17:26:20.405Z,97688.50
2023-03-29T17:31:21.833Z,97692.31
2023-03-29T17:36:25.015Z,97688.81
2023-03-29T17:41:28.580Z,97691.25
2023-03-29T17:46:31.134Z,97701.22
2023-03-29T17:51:32.434Z,97700.41
2023-03-29T17:56:33.942Z,97708.16
2023-03-29T18:01:37.052Z,97707.31
2023-03-29T18:06:40.512Z,97719.66
2023-03-29T18:11:42.141Z,97727.41
2023-03-29T18:16:43.535Z,97734.41
2023-03-29T18:21:44.818Z,97744.41
2023-03-29T18:26:46.102Z,97731.81
2023-03-29T18:31:47.663Z,97738.75
2023-03-29T18:36:50.467Z,97740.63
2023-03-29T18:41:51.969Z,97745.38
2023-03-29T18:46:53.500Z,97741.19
2023-03-29T18:51:55.485Z,97739.44
2023-03-29T18:56:58.704Z,97744.94
2023-03-29T19:02:00.708Z,97762.78
2023-03-29T19:07:02.936Z,97744.25
2023-03-29T19:12:04.149Z,97756.31
2023-03-29T19:17:05.417Z,97751.91
2023-03-29T19:22:06.673Z,97746.88
2023-03-29T19:27:09.250Z,97756.06
2023-03-29T19:32:12.008Z,97733.22
2023-03-29T19:37:13.253Z,97757.22
2023-03-29T19:42:15.600Z,97769.78
2023-03-29T19:47:16.864Z,97747.50
2023-03-29T19:52:18.197Z,97753.44
2023-03-29T19:57:19.507Z,97756.66
2023-03-29T20:02:20.944Z,97747.75
2023-03-29T20:07:22.178Z,97744.63
2023-03-29T20:12:23.503Z,97735.63
2023-03-29T20:17:24.744Z,97716.13
2023-03-29T20:22:30.684Z,97719.44
2023-03-29T20:27:32.014Z,97728.03
2023-03-29T20:32:35.893Z,97726.72
2023-03-29T20:37:37.182Z,97726.78
2023-03-29T20:42:38.763Z,97723.91
2023-03-29T20:47:42.353Z,97716.66
2023-03-29T20:52:43.977Z,97726.38
2023-03-29T20:57:45.198Z,97714.59
2023-03-29T21:02:46.781Z,97699.31
2023-03-29T21:07:48.082Z,97711.22
2023-03-29T21:12:49.871Z,97714.66
2023-03-29T21:17:51.408Z,97726.72
2023-03-29T21:22:52.759Z,97716.34
2023-03-29T21:27:54.171Z,97711.75
2023-03-29T21:32:55.474Z,97704.00
2023-03-29T21:37:56.725Z,97724.69
2023-03-29T21:42:57.963Z,97712.59
2023-03-29T21:47:59.334Z,97695.63
2023-03-29T21:53:01.740Z,97689.19
2023-03-29T21:58:03.565Z,97689.22
2023-03-29T22:03:04.814Z,97667.66
2023-03-29T22:08:06.161Z,97679.66
2023-03-29T22:13:08.232Z,97665.44
2023-03-29T22:18:10.065Z,97658.22
2023-03-29T22:23:11.383Z,97657.06
2023-03-29T22:28:13.616Z,97656.19
2023-03-29T22:33:14.880Z,97658.09
2023-03-29T22:38:16.175Z,97659.06
2023-03-29T22:43:17.466Z,97651.34
2023-03-29T22:48:18.689Z,97650.75
2023-03-29T22:53:19.954Z,97662.97
2023-03-29T22:58:21.453Z,97657.09
2023-03-29T23:03:23.318Z,97644.81
2023-03-29T23:08:24.630Z,97651.72
2023-03-29T23:13:28.670Z,97641.31
2023-03-29T23:18:30.268Z,97626.41
2023-03-29T23:23:31.589Z,97636.13
2023-03-29T23:28:34.581Z,97632.47
2023-03-29T23:33:36.149Z,97641.03
2023-03-29T23:38:37.442Z,97622.94
2023-03-29T23:43:40.440Z,97629.38
2023-03-29T23:48:42.356Z,97618.47
2023-03-29T23:53:43.673Z,97617.06
2023-03-29T23:58:45.053Z,97622.22
